Atlantic City, NJ

4:36 PM EDT on May 30, 2015 (GMT -0400)
APRSWXNET | | Change Station
CLOSE
Current Station
Personal Weather Station
Location: Absecon, NJ
Elevation: 9 ft
Nearby Weather Stations

Elev 9 ft 39.40 °N, 74.47 °W | Updated 26 minutes ago

Clear
Clear
72 °F
Feels Like 71 °F
N
9
Wind Variable Wind from South
Gusts 17.0 mph

Today
High -- | Low -- °F
--% Chance of Precip.
Yesterday
High -- | Low -- °F
Precip. -- in
5:33 AM 8:17 PM
Waxing Gibbous, 92% visible
Pressure 30.14 in
Visibility 10.0 miles
Clouds Clear
Heat Index 71 °F
Dew Point 67 °F
Humidity 83%
Rainfall in
Snow Depth Not available.
UV 7 out of 12
Pollen 8.40 out of 12
Air Quality Not available.
Flu Activity Sporadic
METAR KACY 301954Z 18016G23KT 10SM CLR 26/18 A3014 RMK AO2 SLP206 T02610178

More Conditions Fewer Conditions

Pressure 30.14 in
Visibility 10.0 miles
Clouds Clear
Heat Index 71 °F
Dew Point 67 °F
Humidity 83%
Rainfall in
Snow Depth Not available.
UV 7 out of 12
Pollen 8.40 out of 12
Air Quality Not available.
Flu Activity Sporadic
METAR KACY 301954Z 18016G23KT 10SM CLR 26/18 A3014 RMK AO2 SLP206 T02610178

More Conditions Fewer Conditions

10-Day Weather Forecast

Almanac

Astronomy

May. 30, 2015 Rise Set
Actual Time
Civil Twilight
Nautical Twilight
Astronomical Twilight
Moon
Length of Visible Light
Length of Day
Tomorrow will be .
, % of the Moon is Illuminated

Today's Extremes

State Highs State Lows

Community

WunderPhotos

Upload Photos

1,825,578 photos uploaded!

WunderBlogs® & News

Nearby

Air Quality

  Air Quality AQ Index Pollutant
Not available.

Snow Depth

Station Depth Elevation

Earthquake Activity

City Distance Mag. Time & Date
Minimum magnitude displayed is 2.5.

Coastal Water Temperatures

Place Temperature

Stations

Nearby Weather Stations

Station Location Temp. Windchill Dew Point Humidity Wind Precip. Elev Updated Type